createdAt,value
2019-06-27T00:00:41.828Z,3.70
2019-06-27T00:03:09.979Z,5.70
2019-06-27T00:05:37.851Z,4.03
2019-06-27T00:08:07.802Z,4.28
2019-06-27T00:10:35.692Z,4.12
2019-06-27T00:13:03.671Z,5.00
2019-06-27T00:15:31.569Z,4.85
2019-06-27T00:17:59.414Z,4.90
2019-06-27T00:20:27.298Z,4.62
2019-06-27T00:22:57.435Z,5.00
2019-06-27T00:25:25.298Z,5.08
2019-06-27T00:27:53.158Z,6.03
2019-06-27T00:30:22.244Z,5.25
2019-06-27T00:32:50.123Z,5.35
2019-06-27T00:35:17.999Z,5.78
2019-06-27T00:37:46.028Z,4.92
2019-06-27T00:40:15.350Z,5.22
2019-06-27T00:42:44.259Z,6.10
2019-06-27T00:45:12.303Z,5.97
2019-06-27T00:47:40.178Z,5.37
2019-06-27T00:50:08.247Z,5.95
2019-06-27T00:52:38.128Z,9.15
2019-06-27T00:55:06.139Z,6.00
2019-06-27T00:57:34.084Z,6.40
2019-06-27T01:00:01.976Z,6.03
2019-06-27T01:02:29.849Z,7.83
2019-06-27T01:04:59.157Z,5.85
2019-06-27T01:07:27.046Z,6.08
2019-06-27T01:09:54.902Z,5.72
2019-06-27T01:12:22.784Z,6.58
2019-06-27T01:14:50.598Z,5.90
2019-06-27T01:17:18.462Z,6.20
2019-06-27T01:19:46.343Z,7.12
2019-06-27T01:22:14.269Z,7.00
2019-06-27T01:24:43.932Z,6.78
2019-06-27T01:27:11.859Z,7.72
2019-06-27T01:29:41.007Z,6.35
2019-06-27T01:32:08.946Z,6.50
2019-06-27T01:34:36.766Z,8.25
2019-06-27T01:37:06.691Z,6.00
2019-06-27T01:39:34.592Z,5.62
2019-06-27T01:42:02.493Z,6.70
2019-06-27T01:44:50.614Z,6.30
2019-06-27T01:47:18.588Z,6.50
2019-06-27T01:49:53.780Z,6.58
2019-06-27T01:52:21.657Z,6.80
2019-06-27T01:54:49.570Z,6.97
2019-06-27T01:57:17.447Z,6.90
2019-06-27T01:59:45.358Z,7.03
2019-06-27T02:02:13.236Z,6.92
2019-06-27T02:04:41.091Z,7.83
2019-06-27T02:07:08.945Z,6.50
2019-06-27T02:09:36.812Z,6.40
2019-06-27T02:12:04.717Z,6.62
2019-06-27T02:14:32.810Z,7.42
2019-06-27T02:17:00.679Z,7.60
2019-06-27T02:19:28.519Z,7.40
2019-06-27T02:21:56.345Z,7.22
2019-06-27T02:24:24.249Z,6.65
2019-06-27T02:26:52.098Z,7.92
2019-06-27T02:29:20.015Z,7.28
2019-06-27T02:31:47.890Z,7.20
2019-06-27T02:34:15.768Z,7.08
2019-06-27T02:36:43.744Z,7.28
2019-06-27T02:39:11.659Z,7.17
2019-06-27T02:41:39.890Z,5.75
2019-06-27T02:44:07.825Z,7.30
2019-06-27T02:46:35.716Z,6.37
2019-06-27T02:49:03.562Z,6.30
2019-06-27T02:51:33.484Z,6.33
2019-06-27T02:54:01.324Z,5.58
2019-06-27T02:56:29.224Z,6.12
2019-06-27T02:58:57.096Z,5.53
2019-06-27T03:01:27.312Z,5.35
2019-06-27T03:03:55.157Z,6.58
2019-06-27T03:06:23.025Z,6.03
2019-06-27T03:08:50.909Z,5.65
2019-06-27T03:11:18.819Z,5.85
2019-06-27T03:13:46.783Z,5.22
2019-06-27T03:16:16.033Z,5.10
2019-06-27T03:18:43.980Z,6.90
2019-06-27T03:21:11.877Z,5.03
2019-06-27T03:23:39.720Z,4.53
2019-06-27T03:26:07.592Z,5.33
2019-06-27T03:28:51.090Z,5.03
2019-06-27T03:31:05.060Z,5.03
2019-06-27T03:33:32.996Z,5.72
2019-06-27T03:36:00.923Z,4.37
2019-06-27T03:38:29.014Z,4.20
2019-06-27T03:40:56.863Z,4.70
2019-06-27T03:43:24.724Z,4.60
2019-06-27T03:45:52.599Z,5.72
2019-06-27T03:48:20.498Z,5.60
2019-06-27T03:50:49.542Z,4.17
2019-06-27T03:53:17.407Z,4.17
2019-06-27T03:55:45.307Z,4.92
2019-06-27T03:58:13.280Z,4.42
2019-06-27T04:00:41.146Z,4.58
2019-06-27T04:03:09.140Z,4.37
2019-06-27T04:05:37.000Z,4.20
2019-06-27T04:08:04.956Z,5.30
2019-06-27T04:10:32.781Z,4.20
2019-06-27T04:13:00.697Z,4.15
2019-06-27T04:15:28.774Z,5.08
2019-06-27T04:17:56.724Z,5.17
2019-06-27T04:20:25.844Z,4.60
2019-06-27T04:22:53.763Z,5.17
2019-06-27T04:25:21.619Z,4.60
2019-06-27T04:27:49.497Z,4.80
2019-06-27T04:30:17.371Z,5.20
2019-06-27T04:32:45.332Z,5.17
2019-06-27T04:35:13.665Z,5.30
2019-06-27T04:37:41.849Z,4.33
2019-06-27T04:40:09.692Z,4.95
2019-06-27T04:42:37.582Z,4.67
2019-06-27T04:45:05.936Z,5.12
2019-06-27T04:47:34.086Z,6.17
2019-06-27T04:50:01.941Z,4.55
2019-06-27T04:52:29.910Z,5.05
2019-06-27T04:55:02.746Z,5.33
2019-06-27T04:57:27.357Z,4.80
2019-06-27T04:59:55.276Z,5.42
2019-06-27T05:02:23.133Z,5.08
2019-06-27T05:04:51.016Z,4.35
2019-06-27T05:07:18.863Z,5.67
2019-06-27T05:09:46.766Z,4.40
2019-06-27T05:12:14.580Z,5.72
2019-06-27T05:14:42.461Z,5.20
2019-06-27T05:17:10.294Z,6.22
2019-06-27T05:19:39.515Z,7.05
2019-06-27T05:22:07.347Z,6.47
2019-06-27T05:24:35.351Z,5.45
2019-06-27T05:27:03.554Z,6.00
2019-06-27T05:29:31.775Z,6.70
2019-06-27T05:32:01.875Z,5.87
2019-06-27T05:34:29.715Z,5.35
2019-06-27T05:36:57.541Z,6.20
2019-06-27T05:39:25.425Z,6.78
2019-06-27T05:41:53.213Z,6.12
2019-06-27T05:44:21.081Z,6.25
2019-06-27T05:46:48.877Z,6.05
2019-06-27T05:49:16.728Z,6.70
2019-06-27T05:51:44.562Z,6.00
2019-06-27T05:54:12.393Z,7.25
2019-06-27T05:56:40.293Z,6.83
2019-06-27T05:59:08.121Z,7.33
2019-06-27T06:01:35.955Z,7.80
2019-06-27T06:04:03.790Z,8.75
2019-06-27T06:06:31.646Z,8.45
2019-06-27T06:08:59.485Z,8.13
2019-06-27T06:11:27.401Z,8.73
2019-06-27T06:13:55.229Z,8.68
2019-06-27T06:16:23.078Z,8.28
2019-06-27T06:18:50.902Z,8.65
2019-06-27T06:21:18.721Z,8.43
2019-06-27T06:23:46.529Z,8.45
2019-06-27T06:26:14.362Z,8.23
2019-06-27T06:28:42.173Z,9.13
2019-06-27T06:31:09.986Z,8.23
2019-06-27T06:33:37.803Z,8.75
2019-06-27T06:36:05.657Z,7.65
2019-06-27T06:38:33.470Z,9.18
2019-06-27T06:41:01.331Z,8.45
2019-06-27T06:43:29.130Z,8.10
2019-06-27T06:45:56.998Z,8.95
2019-06-27T06:48:24.813Z,8.05
2019-06-27T06:50:52.647Z,8.58
2019-06-27T06:53:20.497Z,8.35
2019-06-27T06:55:48.313Z,7.75
2019-06-27T06:58:16.133Z,7.20
2019-06-27T07:00:56.993Z,7.80
2019-06-27T07:03:13.687Z,7.70
2019-06-27T07:05:41.610Z,5.60
2019-06-27T07:08:09.573Z,4.73
2019-06-27T07:10:37.384Z,5.50
2019-06-27T07:13:05.224Z,5.73
2019-06-27T07:15:33.038Z,6.70
2019-06-27T07:18:00.890Z,6.80
2019-06-27T07:20:28.697Z,6.13
2019-06-27T07:22:56.524Z,6.03
2019-06-27T07:25:24.320Z,5.40
2019-06-27T07:27:52.168Z,5.90
2019-06-27T07:30:19.953Z,6.33
2019-06-27T07:32:47.778Z,6.07
2019-06-27T07:35:15.574Z,5.87
2019-06-27T07:37:43.447Z,5.80
2019-06-27T07:40:11.250Z,6.47
2019-06-27T07:42:39.096Z,5.97
2019-06-27T07:45:06.995Z,6.73
2019-06-27T07:47:34.818Z,5.97
2019-06-27T07:50:02.611Z,7.37
2019-06-27T07:52:30.495Z,6.33
2019-06-27T07:54:58.293Z,6.43
2019-06-27T07:57:26.138Z,6.00
2019-06-27T07:59:53.956Z,6.13
2019-06-27T08:02:21.750Z,5.77
2019-06-27T08:04:49.579Z,5.80
2019-06-27T08:07:21.066Z,5.43
2019-06-27T08:09:47.188Z,6.37
2019-06-27T08:12:14.952Z,5.83
2019-06-27T08:14:42.818Z,5.60
2019-06-27T08:17:10.583Z,6.30
2019-06-27T08:19:38.410Z,5.63
2019-06-27T08:22:06.211Z,4.50
2019-06-27T08:24:34.640Z,3.80
2019-06-27T08:27:02.530Z,5.23
2019-06-27T08:29:30.371Z,4.70
2019-06-27T08:31:58.195Z,4.17
2019-06-27T08:34:26.050Z,4.10
2019-06-27T08:36:53.887Z,4.27
2019-06-27T08:39:21.717Z,3.57
2019-06-27T08:41:49.722Z,3.83
2019-06-27T08:44:17.549Z,4.43
2019-06-27T08:46:45.347Z,4.77
2019-06-27T08:49:13.202Z,4.73
2019-06-27T08:51:41.002Z,3.73
2019-06-27T08:54:08.847Z,3.60
2019-06-27T08:56:36.696Z,4.07
2019-06-27T08:59:04.507Z,3.73
2019-06-27T09:01:32.346Z,4.80
2019-06-27T09:04:00.152Z,4.13
2019-06-27T09:06:28.003Z,4.13
2019-06-27T09:08:55.810Z,4.63
2019-06-27T09:11:23.813Z,4.93
2019-06-27T09:13:51.622Z,4.57
2019-06-27T09:16:19.455Z,4.83
2019-06-27T09:18:47.262Z,5.43
2019-06-27T09:21:15.091Z,4.50
2019-06-27T09:23:42.918Z,4.50
2019-06-27T09:26:10.754Z,4.23
2019-06-27T09:28:38.550Z,4.67
2019-06-27T09:31:06.382Z,4.27
2019-06-27T09:33:34.215Z,4.20
2019-06-27T09:36:02.050Z,4.53
2019-06-27T09:38:29.996Z,6.03
2019-06-27T09:40:57.875Z,5.53
2019-06-27T09:43:25.782Z,4.40
2019-06-27T09:45:53.587Z,4.40
2019-06-27T09:48:21.391Z,4.30
2019-06-27T09:50:49.238Z,5.30
2019-06-27T09:53:17.039Z,4.50
2019-06-27T09:55:47.356Z,5.17
2019-06-27T09:58:14.395Z,4.97
2019-06-27T10:00:42.230Z,4.80
2019-06-27T10:03:10.073Z,4.60
2019-06-27T10:05:37.933Z,4.80
2019-06-27T10:08:05.745Z,4.00
2019-06-27T10:10:33.582Z,5.23
2019-06-27T10:13:01.591Z,5.60
2019-06-27T10:15:29.507Z,5.50
2019-06-27T10:17:57.587Z,5.70
2019-06-27T10:20:25.382Z,4.77
2019-06-27T10:22:53.219Z,3.90
2019-06-27T10:25:21.018Z,4.30
2019-06-27T10:27:48.871Z,4.70
2019-06-27T10:30:16.887Z,4.17
2019-06-27T10:32:58.281Z,4.50
2019-06-27T10:35:14.316Z,4.53
2019-06-27T10:37:42.142Z,5.60
2019-06-27T10:40:10.059Z,4.10
2019-06-27T10:42:37.909Z,4.63
2019-06-27T10:45:05.854Z,4.97
2019-06-27T10:47:33.806Z,4.73
2019-06-27T10:50:01.638Z,4.77
2019-06-27T10:52:29.537Z,4.30
2019-06-27T10:54:57.392Z,3.50
2019-06-27T10:57:25.234Z,3.90
2019-06-27T10:59:53.042Z,3.60
2019-06-27T11:02:20.921Z,4.30
2019-06-27T11:04:48.793Z,3.73
2019-06-27T11:07:16.687Z,3.60
2019-06-27T11:09:44.521Z,3.53
2019-06-27T11:12:12.377Z,3.67
2019-06-27T11:14:40.230Z,3.43
2019-06-27T11:17:08.084Z,2.80
2019-06-27T11:19:51.489Z,3.47
2019-06-27T11:22:05.468Z,2.87
2019-06-27T11:24:33.311Z,3.30
2019-06-27T11:27:01.133Z,3.10
2019-06-27T11:29:29.005Z,3.07
2019-06-27T11:31:56.830Z,3.90
2019-06-27T11:34:24.726Z,2.90
2019-06-27T11:36:52.621Z,3.03
2019-06-27T11:39:23.217Z,3.30
2019-06-27T11:41:50.051Z,3.10
2019-06-27T11:44:17.959Z,3.27
2019-06-27T11:46:45.815Z,3.17
2019-06-27T11:49:13.693Z,3.00
2019-06-27T11:51:41.524Z,3.40
2019-06-27T11:54:09.366Z,2.77
2019-06-27T11:56:37.189Z,3.20
2019-06-27T11:59:05.359Z,3.00
2019-06-27T12:01:33.215Z,3.07
2019-06-27T12:04:01.025Z,2.80
2019-06-27T12:06:28.869Z,2.83
2019-06-27T12:08:56.722Z,3.80
2019-06-27T12:11:24.594Z,2.97
2019-06-27T12:13:52.409Z,2.90
2019-06-27T12:16:20.241Z,4.13
2019-06-27T12:18:48.070Z,2.40
2019-06-27T12:21:15.937Z,3.07
2019-06-27T12:23:43.757Z,2.60
2019-06-27T12:26:11.597Z,2.60
2019-06-27T12:28:39.414Z,2.70
2019-06-27T12:31:19.918Z,2.70
2019-06-27T12:33:36.923Z,2.30
2019-06-27T12:36:04.755Z,2.57
2019-06-27T12:38:32.609Z,2.73
2019-06-27T12:41:00.458Z,2.57
2019-06-27T12:43:28.285Z,2.60
2019-06-27T12:45:56.110Z,2.50
2019-06-27T12:48:23.913Z,3.43
2019-06-27T12:50:51.803Z,2.53
2019-06-27T12:53:19.653Z,2.60
2019-06-27T12:55:47.498Z,2.43
2019-06-27T12:58:15.313Z,2.87
2019-06-27T13:00:43.201Z,2.60
2019-06-27T13:03:11.333Z,2.03
2019-06-27T13:05:39.158Z,2.40
2019-06-27T13:08:07.005Z,2.80
2019-06-27T13:10:36.204Z,3.00
2019-06-27T13:13:04.658Z,2.37
2019-06-27T13:15:32.552Z,3.20
2019-06-27T13:18:00.411Z,3.10
2019-06-27T13:20:28.222Z,2.63
2019-06-27T13:22:56.087Z,2.60
2019-06-27T13:25:24.017Z,2.33
2019-06-27T13:27:52.596Z,2.40
2019-06-27T13:30:20.474Z,2.40
2019-06-27T13:32:48.355Z,3.33
2019-06-27T13:35:16.182Z,2.70
2019-06-27T13:37:44.036Z,2.60
2019-06-27T13:40:11.961Z,3.10
2019-06-27T13:42:39.790Z,2.70
2019-06-27T13:45:07.631Z,2.50
2019-06-27T13:47:35.462Z,2.37
2019-06-27T13:50:03.394Z,2.63
2019-06-27T13:52:31.250Z,2.20
2019-06-27T13:54:59.186Z,2.70
2019-06-27T13:57:27.094Z,2.50
2019-06-27T13:59:54.907Z,2.10
2019-06-27T14:02:22.754Z,2.60
2019-06-27T14:04:56.962Z,3.00
2019-06-27T14:07:20.146Z,2.70
2019-06-27T14:09:55.467Z,2.80
2019-06-27T14:12:17.806Z,2.80
2019-06-27T14:14:59.154Z,2.83
2019-06-27T14:17:15.411Z,4.53
2019-06-27T14:19:43.234Z,2.70
2019-06-27T14:22:15.217Z,2.47
2019-06-27T14:24:40.622Z,2.33
2019-06-27T14:27:08.479Z,2.57
2019-06-27T14:29:36.357Z,2.67
2019-06-27T14:32:04.149Z,2.50
2019-06-27T14:34:32.014Z,2.67
2019-06-27T14:36:59.809Z,2.87
2019-06-27T14:39:27.682Z,2.70
2019-06-27T14:41:55.568Z,3.50
2019-06-27T14:44:23.437Z,3.00
2019-06-27T14:46:51.291Z,2.73
2019-06-27T14:49:19.304Z,2.73
2019-06-27T14:51:47.127Z,2.70
2019-06-27T14:54:14.972Z,2.77
2019-06-27T14:56:42.814Z,2.30
2019-06-27T14:59:14.147Z,2.50
2019-06-27T15:01:40.201Z,2.10
2019-06-27T15:04:08.060Z,2.60
2019-06-27T15:06:35.926Z,2.80
2019-06-27T15:09:04.476Z,2.83
2019-06-27T15:11:32.310Z,2.97
2019-06-27T15:14:00.110Z,2.50
2019-06-27T15:16:27.956Z,2.50
2019-06-27T15:18:55.768Z,2.63
2019-06-27T15:21:23.614Z,2.93
2019-06-27T15:23:51.442Z,3.03
2019-06-27T15:26:19.294Z,2.67
2019-06-27T15:28:47.118Z,2.53
2019-06-27T15:31:14.982Z,3.40
2019-06-27T15:33:42.822Z,2.90
2019-06-27T15:36:10.671Z,3.57
2019-06-27T15:38:38.542Z,2.60
2019-06-27T15:41:06.402Z,2.63
2019-06-27T15:43:34.223Z,2.80
2019-06-27T15:46:02.064Z,2.90
2019-06-27T15:48:29.878Z,3.10
2019-06-27T15:50:57.726Z,2.90
2019-06-27T15:53:25.865Z,2.90
2019-06-27T15:55:53.703Z,2.70
2019-06-27T15:58:21.537Z,2.70
2019-06-27T16:00:49.386Z,2.57
2019-06-27T16:03:17.240Z,2.30
2019-06-27T16:05:45.043Z,2.83
2019-06-27T16:08:12.879Z,2.73
2019-06-27T16:10:40.745Z,2.70
2019-06-27T16:13:08.600Z,2.97
2019-06-27T16:15:36.397Z,3.20
2019-06-27T16:18:04.249Z,3.33
2019-06-27T16:20:32.061Z,3.77
2019-06-27T16:22:59.902Z,3.20
2019-06-27T16:25:28.145Z,3.43
2019-06-27T16:27:56.053Z,3.83
2019-06-27T16:30:23.909Z,3.33
2019-06-27T16:32:51.750Z,4.73
2019-06-27T16:35:19.581Z,3.20
2019-06-27T16:37:47.461Z,3.00
2019-06-27T16:40:15.282Z,3.40
2019-06-27T16:42:43.150Z,3.97
2019-06-27T16:45:11.149Z,3.37
2019-06-27T16:47:38.990Z,3.50
2019-06-27T16:50:07.994Z,4.73
2019-06-27T16:52:35.871Z,3.37
2019-06-27T16:55:06.113Z,3.83
2019-06-27T16:57:34.037Z,3.13
2019-06-27T17:00:02.894Z,3.20
2019-06-27T17:02:32.958Z,3.03
2019-06-27T17:05:00.831Z,3.30
2019-06-27T17:07:31.332Z,3.77
2019-06-27T17:09:59.202Z,3.27
2019-06-27T17:12:27.017Z,3.73
2019-06-27T17:14:55.022Z,3.40
2019-06-27T17:17:22.888Z,3.90
2019-06-27T17:19:52.615Z,3.20
2019-06-27T17:22:20.469Z,3.70
2019-06-27T17:24:49.572Z,4.00
2019-06-27T17:27:18.963Z,3.40
2019-06-27T17:29:48.619Z,3.70
2019-06-27T17:32:16.520Z,3.43
2019-06-27T17:34:44.491Z,3.40
2019-06-27T17:37:12.420Z,3.53
2019-06-27T17:39:40.341Z,4.33
2019-06-27T17:42:08.210Z,2.53
2019-06-27T17:44:36.149Z,3.97
2019-06-27T17:47:04.072Z,3.80
2019-06-27T17:49:32.245Z,3.50
2019-06-27T17:52:02.123Z,4.50
2019-06-27T17:54:29.963Z,4.70
2019-06-27T17:56:57.925Z,3.50
2019-06-27T17:59:25.787Z,4.60
2019-06-27T18:01:54.825Z,4.50
2019-06-27T18:04:22.796Z,3.97
2019-06-27T18:06:50.675Z,4.50
2019-06-27T18:09:18.842Z,4.70
2019-06-27T18:11:48.885Z,4.80
2019-06-27T18:14:16.805Z,4.50
2019-06-27T18:16:44.813Z,4.47
2019-06-27T18:19:13.721Z,5.03
2019-06-27T18:21:42.488Z,4.77
2019-06-27T18:24:12.182Z,4.73
2019-06-27T18:26:40.025Z,5.00
2019-06-27T18:29:08.945Z,4.87
2019-06-27T18:31:40.499Z,5.60
2019-06-27T18:34:11.189Z,4.70
2019-06-27T18:36:39.372Z,5.07
2019-06-27T18:39:09.361Z,5.00
2019-06-27T18:41:37.562Z,4.33
2019-06-27T18:44:05.493Z,4.80
2019-06-27T18:46:33.359Z,4.80
2019-06-27T18:49:01.224Z,3.97
2019-06-27T18:51:29.173Z,3.97
2019-06-27T18:54:00.013Z,5.80
2019-06-27T18:56:26.710Z,5.07
2019-06-27T18:58:55.999Z,4.40
2019-06-27T19:01:27.531Z,4.20
2019-06-27T19:03:55.423Z,4.10
2019-06-27T19:06:23.413Z,4.47
2019-06-27T19:08:51.376Z,3.93
2019-06-27T19:11:19.302Z,3.87
2019-06-27T19:13:47.298Z,3.70
2019-06-27T19:16:15.213Z,4.30
2019-06-27T19:18:49.791Z,3.70
2019-06-27T19:21:25.382Z,3.50
2019-06-27T19:24:02.511Z,3.20
2019-06-27T19:26:30.429Z,3.83
2019-06-27T19:28:58.305Z,3.30
2019-06-27T19:31:26.241Z,3.80
2019-06-27T19:33:56.238Z,3.60
2019-06-27T19:36:24.126Z,3.10
2019-06-27T19:38:52.059Z,4.00
2019-06-27T19:41:19.962Z,3.77
2019-06-27T19:43:47.878Z,4.00
2019-06-27T19:46:15.752Z,4.00
2019-06-27T19:48:45.772Z,3.70
2019-06-27T19:51:13.806Z,4.37
2019-06-27T19:53:42.125Z,3.80
2019-06-27T19:56:10.369Z,4.43
2019-06-27T19:58:39.448Z,4.00
2019-06-27T20:01:07.312Z,3.95
2019-06-27T20:03:35.498Z,4.62
2019-06-27T20:06:03.403Z,4.12
2019-06-27T20:08:31.318Z,4.03
2019-06-27T20:10:59.219Z,3.62
2019-06-27T20:13:29.426Z,4.30
2019-06-27T20:15:57.307Z,3.35
2019-06-27T20:18:25.270Z,3.95
2019-06-27T20:20:55.979Z,3.77
2019-06-27T20:23:23.907Z,4.05
2019-06-27T20:25:51.783Z,4.00
2019-06-27T20:28:19.682Z,4.45
2019-06-27T20:30:47.655Z,5.30
2019-06-27T20:33:15.602Z,4.80
2019-06-27T20:35:44.223Z,5.53
2019-06-27T20:38:12.127Z,5.42
2019-06-27T20:40:40.013Z,5.70
2019-06-27T20:43:07.973Z,5.30
2019-06-27T20:45:36.174Z,5.22
2019-06-27T20:48:05.125Z,5.12
2019-06-27T20:50:33.099Z,5.05
2019-06-27T20:53:02.214Z,4.95
2019-06-27T20:55:31.618Z,5.78
2019-06-27T20:57:59.533Z,5.85
2019-06-27T21:00:27.419Z,5.45
2019-06-27T21:02:55.270Z,6.33
2019-06-27T21:05:23.462Z,5.62
2019-06-27T21:07:51.329Z,5.75
2019-06-27T21:10:19.225Z,5.60
2019-06-27T21:12:48.376Z,5.87
2019-06-27T21:15:16.458Z,5.55
2019-06-27T21:17:44.662Z,6.58
2019-06-27T21:20:12.890Z,6.37
2019-06-27T21:22:40.802Z,5.75
2019-06-27T21:25:09.485Z,5.60
2019-06-27T21:27:37.355Z,5.85
2019-06-27T21:30:06.886Z,6.33
2019-06-27T21:32:34.776Z,6.30
2019-06-27T21:35:02.644Z,5.65
2019-06-27T21:37:30.545Z,7.15
2019-06-27T21:39:58.448Z,5.67
2019-06-27T21:42:26.329Z,6.05
2019-06-27T21:44:54.170Z,6.95
2019-06-27T21:47:22.014Z,5.78
2019-06-27T21:49:49.905Z,6.33
2019-06-27T21:52:17.845Z,6.97
2019-06-27T21:54:45.758Z,5.97
2019-06-27T21:57:13.695Z,5.58
2019-06-27T21:59:41.612Z,6.78
2019-06-27T22:02:11.114Z,6.15
2019-06-27T22:04:43.996Z,5.95
2019-06-27T22:07:11.990Z,6.55
2019-06-27T22:09:39.898Z,6.00
2019-06-27T22:12:09.258Z,7.20
2019-06-27T22:14:37.287Z,7.50
2019-06-27T22:17:05.253Z,5.03
2019-06-27T22:19:33.133Z,6.10
2019-06-27T22:22:01.066Z,6.47
2019-06-27T22:24:31.253Z,6.47
2019-06-27T22:27:00.022Z,5.83
2019-06-27T22:29:28.020Z,6.53
2019-06-27T22:31:57.091Z,6.45
2019-06-27T22:34:25.060Z,5.65
2019-06-27T22:36:55.542Z,6.60
2019-06-27T22:39:41.149Z,6.62
2019-06-27T22:42:27.106Z,5.80
2019-06-27T22:45:12.766Z,6.45
2019-06-27T22:47:58.433Z,7.33
2019-06-27T22:50:39.851Z,6.00
2019-06-27T22:53:12.637Z,5.65
2019-06-27T22:55:41.637Z,6.17
2019-06-27T22:58:09.528Z,5.80
2019-06-27T23:00:37.635Z,6.37
2019-06-27T23:03:05.502Z,6.10
2019-06-27T23:05:33.378Z,5.47
2019-06-27T23:08:01.374Z,6.55
2019-06-27T23:10:29.286Z,6.65
2019-06-27T23:12:58.911Z,6.85
2019-06-27T23:15:26.806Z,7.33
2019-06-27T23:17:54.762Z,6.37
2019-06-27T23:20:23.787Z,6.67
2019-06-27T23:22:51.739Z,6.80
2019-06-27T23:25:19.648Z,6.87
2019-06-27T23:27:47.532Z,6.90
2019-06-27T23:30:15.516Z,6.50
2019-06-27T23:32:43.455Z,7.20
2019-06-27T23:35:11.399Z,6.60
2019-06-27T23:37:39.278Z,5.85
2019-06-27T23:40:13.978Z,8.23
2019-06-27T23:42:39.975Z,7.55
2019-06-27T23:45:07.878Z,7.20
2019-06-27T23:47:37.132Z,6.62
2019-06-27T23:50:05.210Z,8.10
2019-06-27T23:52:33.157Z,7.10
2019-06-27T23:55:01.322Z,6.53
2019-06-27T23:57:29.230Z,6.85
2019-06-27T23:59:58.598Z,7.53
